Time;durP1;ratioP1;P1;durP2;ratioP2;P2;SDS_P1;SDS_P2;PMS_P1;PMS_P2;Temp;Humidity;BMP_temperature;BMP_pressure;BME280_temperature;BME280_humidity;BME280_pressure;Samples;Min_cycle;Max_cycle;Signal;HPM_P1;HPM_P2
2022/11/03 00:01:36;;;;;;;25.87;12.10;;;;;;;41.55;37.39;101065.06;5072241;28;20435;-74
2022/11/03 00:04:06;;;;;;;16.03;8.47;;;;;;;41.67;37.50;101067.09;5071879;28;20422;-74
2022/11/03 00:06:33;;;;;;;26.67;10.40;;;;;;;41.05;39.06;101069.19;5071539;28;20531;-74
2022/11/03 00:09:01;;;;;;;24.43;10.97;;;;;;;41.49;38.01;101066.38;5073405;28;20825;-74
2022/11/03 00:11:27;;;;;;;19.53;9.87;;;;;;;41.51;38.01;101059.50;5071851;28;20410;-74
2022/11/03 00:13:53;;;;;;;19.40;9.10;;;;;;;41.70;37.82;101050.91;5072063;28;20418;-74
2022/11/03 00:16:19;;;;;;;30.30;10.90;;;;;;;41.28;38.56;101055.38;5071701;28;20413;-74
2022/11/03 00:18:45;;;;;;;21.23;8.90;;;;;;;41.47;37.79;101039.47;5071693;28;20410;-73
2022/11/03 00:21:13;;;;;;;24.30;8.50;;;;;;;41.37;38.00;101045.28;5071480;28;20788;-74
2022/11/03 00:23:41;;;;;;;26.30;9.60;;;;;;;41.62;37.65;101049.06;5071572;28;20421;-74
2022/11/03 00:26:16;;;;;;;23.30;10.73;;;;;;;41.44;37.76;101052.97;5071047;28;20500;-74
2022/11/03 00:28:44;;;;;;;24.57;10.37;;;;;;;41.29;38.23;101041.44;5071848;28;20422;-74
2022/11/03 00:31:16;;;;;;;23.97;11.73;;;;;;;41.30;37.99;101050.41;5073198;28;20402;-73
2022/11/03 00:33:43;;;;;;;23.00;9.43;;;;;;;41.09;38.18;101044.88;5071331;28;20457;-73
2022/11/03 00:36:12;;;;;;;21.43;9.47;;;;;;;41.03;38.43;101027.91;5071412;28;20426;-74
2022/11/03 00:38:38;;;;;;;31.40;10.93;;;;;;;40.97;37.96;101037.38;5072960;28;20394;-74
2022/11/03 00:41:05;;;;;;;23.63;11.47;;;;;;;41.21;37.68;101027.88;5071401;28;20453;-74
2022/11/03 00:43:34;;;;;;;28.03;9.17;;;;;;;41.17;37.94;101030.44;5073055;28;20398;-74
2022/11/03 00:46:00;;;;;;;22.37;10.07;;;;;;;41.07;37.83;101031.59;5071238;28;20465;-74
2022/11/03 00:48:29;;;;;;;14.93;9.17;;;;;;;40.91;38.86;101035.94;5071358;28;20421;-73
2022/11/03 00:51:10;;;;;;;28.60;11.27;;;;;;;41.08;38.98;101030.47;5088325;28;20456;-74
2022/11/03 00:53:39;;;;;;;35.17;11.63;;;;;;;41.28;38.21;101022.72;5088105;28;21019;-73
2022/11/03 00:56:06;;;;;;;28.27;11.40;;;;;;;40.81;39.40;101022.63;5087907;28;20402;-73
2022/11/03 00:58:32;;;;;;;20.50;11.00;;;;;;;40.98;39.52;101027.28;5087977;28;20433;-73
2022/11/03 01:01:35;;;;;;;18.30;10.47;;;;;;;41.31;38.58;101013.88;5072729;28;20397;-74
2022/11/03 01:06:51;;;;;;;22.90;10.70;;;;;;;41.27;38.46;101008.31;5072155;28;20480;-73
2022/11/03 01:09:20;;;;;;;24.13;10.00;;;;;;;40.85;39.03;101004.56;5071006;28;20441;-73
2022/11/03 01:12:13;;;;;;;24.07;9.47;;;;;;;40.74;39.33;101003.28;5087840;28;20442;-74
2022/11/03 01:14:49;;;;;;;27.97;10.23;;;;;;;40.78;39.03;100999.63;5081791;28;20859;-73
2022/11/03 01:17:18;;;;;;;25.33;11.43;;;;;;;40.86;38.55;101002.63;5087703;28;20421;-73
2022/11/03 01:19:44;;;;;;;23.10;9.87;;;;;;;41.02;38.25;100993.66;5087811;28;20460;-73
2022/11/03 01:22:11;;;;;;;23.50;9.33;;;;;;;41.00;38.25;100990.44;5087800;28;20443;-74
2022/11/03 01:24:40;;;;;;;25.80;10.87;;;;;;;41.07;37.84;100982.63;5087725;28;20426;-73
2022/11/03 01:27:06;;;;;;;23.33;10.23;;;;;;;41.21;37.51;100979.69;5087737;28;20465;-73
2022/11/03 01:29:32;;;;;;;17.83;10.53;;;;;;;40.80;38.31;100982.97;5087697;28;20425;-74
2022/11/03 01:31:58;;;;;;;22.33;10.87;;;;;;;40.95;37.99;100977.06;5071213;28;20789;-74
2022/11/03 01:34:24;;;;;;;28.43;12.17;;;;;;;40.99;37.83;100975.25;5072558;28;20793;-74
2022/11/03 01:36:49;;;;;;;18.13;9.50;;;;;;;41.07;38.07;100962.78;5086505;28;20504;-74
2022/11/03 01:39:17;;;;;;;27.43;10.90;;;;;;;41.30;38.14;100966.81;5093508;28;20515;-74
2022/11/03 01:41:46;;;;;;;31.80;11.43;;;;;;;41.57;37.61;100962.88;5094863;28;20596;-74
2022/11/03 01:44:12;;;;;;;25.13;8.90;;;;;;;41.53;37.96;100961.94;5096411;28;20436;-73
2022/11/03 01:46:41;;;;;;;18.53;8.80;;;;;;;41.24;38.47;100953.72;5094811;28;20456;-74
2022/11/03 01:49:13;;;;;;;20.17;10.93;;;;;;;41.15;38.12;100959.22;5094815;28;20268;-73
2022/11/03 01:51:42;;;;;;;28.50;11.97;;;;;;;41.17;38.14;100951.50;5094707;28;20452;-74
2022/11/03 01:54:13;;;;;;;43.93;13.23;;;;;;;41.43;37.78;100964.22;5096232;28;20393;-74
2022/11/03 01:56:45;;;;;;;39.33;20.47;;;;;;;41.50;37.80;100953.63;5094709;28;20436;-74
2022/11/03 01:59:14;;;;;;;52.33;30.00;;;;;;;41.67;36.99;100964.41;5094557;28;20446;-74
2022/11/03 02:01:41;;;;;;;66.63;31.40;;;;;;;41.45;37.19;100962.00;5094529;28;20511;-74
2022/11/03 02:04:38;;;;;;;43.10;24.90;;;;;;;41.62;37.15;100953.72;5094695;28;20420;-73
2022/11/03 02:07:13;;;;;;;57.17;33.97;;;;;;;41.26;37.40;100959.66;5093486;28;20476;-72
2022/11/03 02:09:39;;;;;;;46.50;28.03;;;;;;;41.34;37.12;100953.38;5094355;28;20498;-72
2022/11/03 02:12:06;;;;;;;38.37;19.73;;;;;;;41.36;37.44;100963.94;5094331;28;20440;-72
2022/11/03 02:14:34;;;;;;;30.30;13.43;;;;;;;40.99;38.06;100953.50;5094362;28;20638;-73
2022/11/03 02:17:04;;;;;;;37.77;19.20;;;;;;;41.47;37.25;100957.78;5094304;28;20415;-73
2022/11/03 02:19:41;;;;;;;46.63;21.10;;;;;;;41.32;37.54;100953.72;5094142;28;20785;-74
2022/11/03 02:23:03;;;;;;;30.83;15.10;;;;;;;41.74;36.94;100952.97;5094144;28;20455;-74
2022/11/03 02:25:48;;;;;;;35.40;14.57;;;;;;;41.31;37.29;100960.25;5013655;28;20507;-72
2022/11/03 02:28:20;;;;;;;35.57;16.73;;;;;;;41.02;37.99;100963.75;4996950;28;20470;-72
2022/11/03 02:31:22;;;;;;;46.17;19.10;;;;;;;41.40;37.09;100962.97;5057390;28;20455;-72
2022/11/03 02:33:57;;;;;;;34.93;15.20;;;;;;;41.71;36.68;100962.63;5093897;28;20417;-72
2022/11/03 02:36:32;;;;;;;30.20;15.23;;;;;;;41.51;36.45;100952.50;5095364;28;20444;-72
2022/11/03 02:39:09;;;;;;;49.27;19.13;;;;;;;41.40;36.53;100956.72;5091986;28;20495;-72
2022/11/03 02:41:38;;;;;;;30.60;13.87;;;;;;;40.88;37.77;100960.38;5082476;28;20436;-73
2022/11/03 02:44:10;;;;;;;27.70;13.10;;;;;;;41.17;36.90;100959.66;5073760;28;20467;-73
2022/11/03 02:46:38;;;;;;;35.00;19.30;;;;;;;40.98;36.66;100954.63;5075056;28;20449;-72
2022/11/03 02:49:04;;;;;;;69.30;30.83;;;;;;;41.24;37.17;100962.69;5072909;28;20453;-72
2022/11/03 02:51:30;;;;;;;44.97;22.33;;;;;;;41.27;37.45;100963.97;5073347;28;20479;-72
2022/11/03 02:54:15;;;;;;;27.33;13.50;;;;;;;41.37;37.34;100955.44;5084249;28;20273;-72
2022/11/03 02:56:55;;;;;;;31.20;16.43;;;;;;;41.73;36.88;100952.19;5073232;28;20278;-72
2022/11/03 02:59:29;;;;;;;33.60;11.40;;;;;;;41.67;36.86;100950.00;5073180;28;20410;-72
2022/11/03 03:02:04;;;;;;;44.70;23.00;;;;;;;41.45;37.56;100957.34;5073134;28;20848;-74
2022/11/03 03:04:38;;;;;;;49.37;24.30;;;;;;;41.84;36.85;100960.81;5073057;28;20420;-73
2022/11/03 03:07:12;;;;;;;96.13;45.73;;;;;;;41.24;37.45;100951.78;5072527;28;20568;-72
2022/11/03 03:09:53;;;;;;;68.30;35.10;;;;;;;41.54;36.73;100954.56;5072938;28;20426;-72
2022/11/03 03:12:21;;;;;;;125.90;65.50;;;;;;;41.34;36.98;100951.47;5072909;28;20410;-72
2022/11/03 03:14:50;;;;;;;74.30;39.70;;;;;;;41.20;37.19;100956.31;5072912;28;20410;-73
2022/11/03 03:17:49;;;;;;;72.77;36.00;;;;;;;40.90;38.37;100951.91;5072753;28;20436;-72
2022/11/03 03:20:30;;;;;;;71.10;35.83;;;;;;;41.27;37.47;100956.59;5074341;28;20394;-73
2022/11/03 03:23:07;;;;;;;123.60;71.67;;;;;;;41.29;36.77;100951.59;5072691;28;20424;-73
2022/11/03 03:25:38;;;;;;;97.30;56.73;;;;;;;41.27;36.42;100948.44;5072550;28;20932;-72
2022/11/03 03:28:10;;;;;;;88.90;55.07;;;;;;;40.80;37.97;100953.84;5072377;28;20474;-73
2022/11/03 03:30:38;;;;;;;186.87;101.23;;;;;;;41.32;37.49;100953.72;5072462;28;20956;-72
2022/11/03 03:33:07;;;;;;;85.73;52.40;;;;;;;41.24;37.35;100951.00;5074247;28;20394;-72
2022/11/03 03:35:35;;;;;;;109.47;56.90;;;;;;;41.79;36.35;100956.34;5079647;28;20447;-72
2022/11/03 03:38:08;;;;;;;74.13;34.53;;;;;;;41.84;36.11;100963.53;5096453;28;20412;-73
2022/11/03 03:40:37;;;;;;;103.73;49.87;;;;;;;41.98;35.88;100966.00;5112941;28;20412;-73
2022/11/03 03:43:07;;;;;;;73.23;33.93;;;;;;;41.95;35.91;100963.94;5114593;28;20911;-72
2022/11/03 03:45:35;;;;;;;40.13;21.90;;;;;;;42.24;35.30;100963.91;5112986;28;20504;-72
2022/11/03 03:48:03;;;;;;;56.00;26.60;;;;;;;42.32;35.42;100965.75;5096021;28;20452;-74
2022/11/03 03:50:32;;;;;;;67.13;33.77;;;;;;;41.75;36.55;100974.50;5095999;28;20435;-74
2022/11/03 03:53:01;;;;;;;67.17;38.13;;;;;;;41.79;36.83;100971.91;5114344;28;20396;-74
2022/11/03 03:55:44;;;;;;;65.13;35.67;;;;;;;41.76;36.48;100962.47;5112603;28;20485;-72
2022/11/03 03:58:12;;;;;;;65.63;25.23;;;;;;;41.40;37.39;100964.88;5114197;28;20950;-72
2022/11/03 04:00:39;;;;;;;42.63;25.17;;;;;;;41.48;36.68;100964.84;5112543;28;20432;-72
2022/11/03 04:03:11;;;;;;;50.20;25.90;;;;;;;41.55;36.77;100962.38;5112294;28;20477;-72
2022/11/03 04:05:37;;;;;;;53.13;29.50;;;;;;;41.42;37.33;100970.78;5112979;28;20487;-72
2022/11/03 04:08:03;;;;;;;72.80;35.50;;;;;;;41.85;36.33;100968.63;5112297;28;20571;-73
2022/11/03 04:10:29;;;;;;;43.93;23.00;;;;;;;41.73;36.49;100970.47;5112411;28;20181;-72
2022/11/03 04:23:49;;;;;;;54.20;24.37;;;;;;;41.02;37.42;100968.38;5113217;28;20780;-72
2022/11/03 04:26:17;;;;;;;36.50;15.73;;;;;;;41.18;36.95;100972.16;5112031;28;20848;-73
2022/11/03 04:28:44;;;;;;;30.93;12.97;;;;;;;41.01;37.93;100977.69;5111982;28;20424;-74
2022/11/03 04:31:12;;;;;;;24.77;12.97;;;;;;;41.17;37.30;100978.72;5112302;28;20454;-73
2022/11/03 04:33:38;;;;;;;29.30;12.23;;;;;;;41.44;36.98;100980.25;5111978;28;20419;-74
2022/11/03 04:36:10;;;;;;;26.10;11.70;;;;;;;41.38;37.00;100978.84;5111953;28;20494;-72
2022/11/03 04:38:37;;;;;;;29.67;11.27;;;;;;;41.76;36.43;100981.53;5111907;28;20558;-72
2022/11/03 04:41:11;;;;;;;24.40;12.20;;;;;;;41.39;37.06;100982.34;5111832;28;20499;-73
2022/11/03 04:43:37;;;;;;;33.33;14.20;;;;;;;41.38;37.55;100994.38;5111809;28;20418;-73
2022/11/03 04:46:04;;;;;;;26.50;13.37;;;;;;;41.30;37.48;100990.50;5111761;28;20458;-72
2022/11/03 04:48:30;;;;;;;22.87;11.50;;;;;;;41.32;37.59;100986.38;5111812;28;20439;-73
2022/11/03 04:51:01;;;;;;;25.57;11.23;;;;;;;41.56;37.21;100991.25;5111711;28;20507;-72
2022/11/03 04:53:32;;;;;;;29.30;11.37;;;;;;;41.57;36.91;101005.66;5111714;28;20861;-73
2022/11/03 04:55:59;;;;;;;32.87;19.50;;;;;;;41.42;36.82;101006.19;5113403;28;20497;-73
2022/11/03 04:58:33;;;;;;;42.40;23.87;;;;;;;41.16;37.09;100998.91;5111900;28;20448;-73
2022/11/03 05:01:01;;;;;;;54.20;31.30;;;;;;;40.99;37.19;101007.09;5111743;28;20481;-72
2022/11/03 05:03:36;;;;;;;27.53;16.50;;;;;;;41.11;37.06;101006.44;5111652;28;20430;-73
2022/11/03 05:06:18;;;;;;;26.77;12.03;;;;;;;41.34;36.78;101013.28;5111539;28;20444;-73
2022/11/03 05:09:11;;;;;;;31.73;17.20;;;;;;;41.33;36.73;101019.84;5111636;28;20443;-73
2022/11/03 05:11:40;;;;;;;39.20;17.63;;;;;;;41.27;36.97;101027.38;5111625;28;20516;-73
2022/11/03 05:14:14;;;;;;;58.17;30.43;;;;;;;41.13;36.66;101020.50;5115498;28;20473;-73
2022/11/03 05:16:41;;;;;;;43.20;23.07;;;;;;;41.07;36.93;101017.19;5115696;28;20475;-74
2022/11/03 05:19:15;;;;;;;26.87;15.00;;;;;;;41.18;36.57;101015.69;5115756;28;20430;-74
2022/11/03 05:21:41;;;;;;;36.97;22.43;;;;;;;40.88;36.75;101017.50;5115691;28;20542;-73
2022/11/03 05:24:12;;;;;;;42.00;19.33;;;;;;;40.90;37.24;101022.63;5115694;28;20484;-73
2022/11/03 05:26:38;;;;;;;32.80;13.93;;;;;;;41.22;36.76;101011.22;5117088;28;20526;-73
2022/11/03 05:29:18;;;;;;;45.63;17.53;;;;;;;41.07;37.08;101012.53;5115636;28;20448;-73
2022/11/03 05:31:46;;;;;;;160.63;76.53;;;;;;;41.33;36.06;101017.94;5115330;28;20866;-72
2022/11/03 05:34:40;;;;;;;232.73;137.77;;;;;;;41.26;36.88;101016.81;5115331;28;20851;-72
2022/11/03 05:37:06;;;;;;;75.50;49.63;;;;;;;41.82;35.51;101026.53;5115392;28;20416;-72
2022/11/03 05:39:42;;;;;;;55.30;34.53;;;;;;;41.44;36.15;101020.28;5117019;28;20483;-72
2022/11/03 05:42:28;;;;;;;108.43;65.27;;;;;;;41.90;35.53;101027.59;5115626;28;20182;-72
2022/11/03 05:44:54;;;;;;;57.37;27.90;;;;;;;41.95;35.33;101030.13;5115231;28;20446;-72
2022/11/03 05:47:25;;;;;;;50.93;32.23;;;;;;;41.64;36.22;101025.00;5115046;28;20436;-70
2022/11/03 05:49:55;;;;;;;96.27;46.10;;;;;;;41.72;36.14;101037.75;5115177;28;20420;-71
2022/11/03 05:52:26;;;;;;;39.53;22.10;;;;;;;41.92;35.74;101036.22;5115066;28;20451;-71
2022/11/03 05:54:57;;;;;;;29.93;12.90;;;;;;;41.93;35.63;101043.31;5115132;28;20420;-70
2022/11/03 05:57:27;;;;;;;17.03;9.67;;;;;;;41.84;35.37;101056.16;5115038;28;20444;-71
2022/11/03 05:59:54;;;;;;;27.17;13.43;;;;;;;41.86;35.94;101053.91;5098907;28;20417;-70
2022/11/03 06:02:39;;;;;;;41.67;12.10;;;;;;;41.71;35.88;101057.16;5091661;28;20518;-74
2022/11/03 06:05:19;;;;;;;21.03;11.97;;;;;;;41.76;36.29;101059.75;5094542;28;20420;-74
2022/11/03 06:07:45;;;;;;;26.67;12.47;;;;;;;41.97;35.35;101062.50;5094197;28;20531;-72
2022/11/03 06:10:27;;;;;;;26.17;11.30;;;;;;;41.79;35.74;101072.69;5092835;28;20932;-72
2022/11/03 06:13:03;;;;;;;20.40;11.40;;;;;;;41.42;36.77;101071.53;5084579;28;20483;-71
2022/11/03 06:15:32;;;;;;;17.23;10.87;;;;;;;41.82;35.79;101086.47;5082293;28;20426;-74
2022/11/03 06:18:00;;;;;;;30.73;11.27;;;;;;;41.46;36.70;101070.56;5091001;28;20436;-71
2022/11/03 06:20:27;;;;;;;23.40;11.33;;;;;;;41.61;36.47;101074.66;5092609;28;21009;-73
2022/11/03 06:22:55;;;;;;;22.37;10.93;;;;;;;41.86;35.92;101073.75;5089001;28;20484;-76
2022/11/03 06:25:36;;;;;;;21.20;12.13;;;;;;;41.86;36.18;101090.09;5113076;28;20839;-74
2022/11/03 06:28:10;;;;;;;25.07;17.83;;;;;;;42.03;35.86;101086.50;5115071;28;20450;-73
2022/11/03 06:30:41;;;;;;;32.73;21.80;;;;;;;42.04;36.20;101092.75;5115802;28;20432;-73
2022/11/03 06:33:18;;;;;;;25.80;19.00;;;;;;;42.29;36.06;101096.47;5116084;28;20392;-73
2022/11/03 06:35:44;;;;;;;38.00;20.47;;;;;;;42.05;36.37;101105.25;5096094;28;20441;-72
2022/11/03 06:38:32;;;;;;;34.23;18.57;;;;;;;42.30;35.90;101098.88;5083316;28;20450;-73
2022/11/03 06:40:58;;;;;;;32.73;21.23;;;;;;;42.21;36.08;101100.06;5082800;28;20406;-74
2022/11/03 06:43:41;;;;;;;33.73;21.33;;;;;;;42.18;36.36;101108.91;5081930;28;20482;-73
2022/11/03 06:46:24;;;;;;;34.70;23.43;;;;;;;41.89;36.80;101112.41;5081857;28;20292;-73
2022/11/03 06:48:54;;;;;;;25.87;20.33;;;;;;;41.97;36.64;101114.28;5081396;28;20500;-75
2022/11/03 06:51:22;;;;;;;31.37;21.57;;;;;;;41.98;36.45;101118.59;5074054;28;20425;-70
2022/11/03 06:53:50;;;;;;;30.73;19.70;;;;;;;41.93;36.86;101132.41;5071428;28;20420;-71
2022/11/03 06:56:22;;;;;;;28.87;20.57;;;;;;;41.92;36.85;101136.25;5071290;28;20453;-72
2022/11/03 06:58:51;;;;;;;30.67;22.10;;;;;;;42.10;36.53;101140.50;5081393;28;20926;-70
2022/11/03 07:01:30;;;;;;;25.50;18.97;;;;;;;41.86;36.82;101141.09;5095011;28;20397;-71
2022/11/03 07:04:12;;;;;;;36.37;20.00;;;;;;;42.00;36.88;101144.41;5095059;28;20401;-71
2022/11/03 07:06:38;;;;;;;41.30;19.67;;;;;;;41.42;37.76;101131.44;5089565;28;20476;-69
2022/11/03 07:09:12;;;;;;;27.10;19.67;;;;;;;41.70;37.39;101138.09;5093256;28;20447;-74
2022/11/03 07:11:48;;;;;;;54.07;25.30;;;;;;;41.93;37.42;101137.84;5093179;28;20425;-74
2022/11/03 07:14:19;;;;;;;35.03;23.57;;;;;;;41.13;37.98;101137.53;5093207;28;20425;-74
2022/11/03 07:16:48;;;;;;;37.67;21.73;;;;;;;41.72;37.64;101146.72;5089683;28;20460;-74
2022/11/03 07:19:20;;;;;;;35.43;19.57;;;;;;;41.84;37.06;101141.41;5073844;28;20459;-73
2022/11/03 07:21:53;;;;;;;40.90;20.17;;;;;;;42.11;36.83;101142.09;5072547;28;20921;-75
2022/11/03 07:24:40;;;;;;;51.53;25.60;;;;;;;42.10;36.70;101143.22;5072618;28;20809;-73
2022/11/03 07:27:33;;;;;;;101.97;29.93;;;;;;;42.36;36.59;101154.81;5072644;28;20492;-76
2022/11/03 07:30:13;;;;;;;39.57;21.60;;;;;;;42.36;36.31;101149.38;5072833;28;21002;-76
2022/11/03 07:32:39;;;;;;;32.03;19.90;;;;;;;42.46;36.43;101161.00;5083851;28;20431;-72
2022/11/03 07:35:35;;;;;;;33.33;22.57;;;;;;;42.29;36.71;101164.63;5092157;28;20456;-73
2022/11/03 07:38:08;;;;;;;34.23;21.90;;;;;;;42.54;35.82;101160.97;5071529;28;20508;-75
2022/11/03 07:40:34;;;;;;;42.20;23.63;;;;;;;42.77;36.35;101166.91;5071938;28;20945;-75
2022/11/03 07:43:10;;;;;;;44.07;22.30;;;;;;;42.84;35.81;101163.63;5071870;28;20418;-74
2022/11/03 07:45:48;;;;;;;50.43;27.50;;;;;;;42.42;36.66;101176.41;5071803;28;20847;-76
2022/11/03 07:48:26;;;;;;;35.97;20.77;;;;;;;42.40;36.62;101171.31;5071860;28;20461;-75
2022/11/03 07:50:55;;;;;;;35.77;20.40;;;;;;;42.44;36.44;101171.44;5071993;28;20420;-74
2022/11/03 07:53:42;;;;;;;28.57;19.10;;;;;;;42.25;36.48;101169.16;5070189;28;20406;-74
2022/11/03 07:56:20;;;;;;;27.90;15.73;;;;;;;42.25;36.57;101185.53;5070056;28;20421;-77
2022/11/03 07:58:50;;;;;;;34.00;15.57;;;;;;;42.17;36.34;101181.69;5071751;28;20497;-77
2022/11/03 08:01:25;;;;;;;23.17;16.90;;;;;;;42.61;35.69;101182.28;5070074;28;20410;-77
2022/11/03 08:03:55;;;;;;;33.70;14.37;;;;;;;42.74;35.51;101194.06;5070525;28;20518;-78
2022/11/03 08:06:21;;;;;;;21.40;14.50;;;;;;;42.70;35.35;101191.19;5071926;28;20536;-75
2022/11/03 08:08:47;;;;;;;25.30;14.87;;;;;;;42.94;35.44;101198.72;5073142;28;20921;-75
2022/11/03 08:11:12;;;;;;;23.20;14.23;;;;;;;43.08;35.12;101195.75;5071894;28;20182;-72
2022/11/03 08:13:38;;;;;;;28.73;13.47;;;;;;;42.57;35.86;101201.22;5071605;28;20410;-72
2022/11/03 08:16:05;;;;;;;23.37;12.10;;;;;;;42.79;34.93;101200.13;5073339;28;20228;-72
2022/11/03 08:18:31;;;;;;;28.40;13.57;;;;;;;42.53;35.30;101196.72;5071767;28;20260;-70
2022/11/03 08:20:57;;;;;;;25.03;13.40;;;;;;;42.51;35.38;101212.63;5071632;28;20452;-70
2022/11/03 08:23:22;;;;;;;34.43;17.40;;;;;;;42.68;35.03;101207.09;5071608;28;20203;-71
2022/11/03 08:25:48;;;;;;;26.93;14.47;;;;;;;42.91;34.91;101218.50;5071458;28;20608;-73
2022/11/03 08:28:14;;;;;;;42.00;14.03;;;;;;;42.63;35.21;101210.03;5073403;28;20199;-72
2022/11/03 08:30:40;;;;;;;29.43;14.50;;;;;;;42.84;35.22;101216.28;5073233;28;20203;-72
2022/11/03 08:33:06;;;;;;;21.70;14.30;;;;;;;42.43;35.49;101219.75;5071480;28;20798;-73
2022/11/03 08:35:32;;;;;;;21.30;11.83;;;;;;;42.98;34.54;101218.78;5078244;28;20194;-72
2022/11/03 08:37:58;;;;;;;29.73;11.13;;;;;;;42.86;34.57;101215.97;5113555;28;20404;-73
2022/11/03 08:40:24;;;;;;;23.43;10.97;;;;;;;43.25;34.68;101231.09;5112030;28;20412;-72
2022/11/03 08:42:50;;;;;;;20.47;13.07;;;;;;;43.38;34.10;101226.47;5111900;28;20198;-71
2022/11/03 08:45:16;;;;;;;22.07;13.07;;;;;;;43.28;34.33;101235.06;5111818;28;20511;-70
2022/11/03 08:47:42;;;;;;;37.97;14.20;;;;;;;43.24;34.54;101234.16;5111545;28;20702;-70
2022/11/03 08:50:08;;;;;;;34.23;15.37;;;;;;;43.41;34.48;101237.56;5111601;28;20432;-70
2022/11/03 08:52:34;;;;;;;20.43;11.50;;;;;;;43.27;34.56;101239.72;5113486;28;20431;-72
2022/11/03 08:55:00;;;;;;;30.53;11.60;;;;;;;43.27;34.68;101247.91;5111685;28;20430;-71
2022/11/03 08:57:26;;;;;;;32.13;12.53;;;;;;;43.09;34.62;101247.25;5110245;28;20424;-71
2022/11/03 08:59:53;;;;;;;35.43;12.10;;;;;;;43.36;34.35;101239.66;5113104;28;20396;-72
2022/11/03 09:02:19;;;;;;;25.63;11.03;;;;;;;43.39;34.41;101226.16;5111934;28;20170;-71
2022/11/03 09:04:45;;;;;;;18.30;10.20;;;;;;;43.34;34.42;101231.81;5111723;28;20873;-71
2022/11/03 09:07:11;;;;;;;19.93;11.47;;;;;;;43.41;34.10;101232.09;5094552;28;20232;-72
2022/11/03 09:09:39;;;;;;;19.47;11.77;;;;;;;43.65;33.76;101231.38;5111617;28;20272;-71
2022/11/03 09:12:05;;;;;;;24.80;10.97;;;;;;;43.35;34.09;101227.94;5111636;28;20543;-75
2022/11/03 09:14:30;;;;;;;28.17;12.10;;;;;;;43.47;33.99;101229.16;5111556;28;20934;-78
2022/11/03 09:16:56;;;;;;;28.40;10.60;;;;;;;43.45;33.99;101218.56;5111782;28;21007;-82
2022/11/03 09:19:22;;;;;;;25.67;11.27;;;;;;;43.43;34.23;101218.09;5111661;28;20423;-79
2022/11/03 09:21:48;;;;;;;27.10;12.30;;;;;;;43.47;34.12;101218.22;5111703;28;20660;-78
2022/11/03 09:24:14;;;;;;;26.70;13.00;;;;;;;43.33;34.27;101208.34;5111445;28;20273;-78
2022/11/03 09:26:40;;;;;;;20.87;12.57;;;;;;;43.29;34.82;101204.72;5111409;28;20687;-76
2022/11/03 09:29:06;;;;;;;29.23;15.50;;;;;;;43.19;35.02;101199.66;5111933;28;20178;-79
2022/11/03 09:31:32;;;;;;;28.57;13.53;;;;;;;43.27;34.72;101201.50;5111344;28;20249;-76
2022/11/03 09:33:57;;;;;;;33.23;15.63;;;;;;;43.26;34.89;101193.66;5112992;28;20158;-75
2022/11/03 09:36:23;;;;;;;28.53;12.53;;;;;;;43.51;34.60;101197.28;5111881;28;20178;-74
2022/11/03 09:38:49;;;;;;;28.60;13.30;;;;;;;43.33;34.31;101196.63;5111478;28;20265;-74
2022/11/03 09:41:18;;;;;;;26.23;10.67;;;;;;;43.27;34.64;101196.03;5111314;28;20553;-71
2022/11/03 09:43:45;;;;;;;32.70;14.37;;;;;;;43.48;34.21;101190.56;5111303;28;20506;-71
2022/11/03 09:46:11;;;;;;;120.47;34.00;;;;;;;43.38;34.62;101189.06;5111139;28;20503;-71
2022/11/03 09:48:38;;;;;;;83.53;23.70;;;;;;;43.31;34.53;101202.44;5094439;28;20512;-72
2022/11/03 09:51:05;;;;;;;57.53;13.83;;;;;;;43.37;34.52;101200.28;5094524;28;20904;-71
2022/11/03 09:53:31;;;;;;;29.07;13.27;;;;;;;43.18;34.91;101190.66;5111321;28;20929;-71
2022/11/03 09:55:57;;;;;;;23.77;13.47;;;;;;;43.14;34.78;101189.75;5111267;28;20416;-71
2022/11/03 09:58:22;;;;;;;24.93;11.60;;;;;;;42.56;35.65;101188.69;5111280;28;20939;-72
2022/11/03 10:00:48;;;;;;;29.63;12.43;;;;;;;42.49;35.87;101187.63;5097139;28;20217;-71
2022/11/03 10:03:16;;;;;;;28.90;11.30;;;;;;;43.16;35.30;101189.41;5114945;28;20431;-72
2022/11/03 10:05:47;;;;;;;26.03;14.47;;;;;;;43.05;34.85;101185.50;5116335;28;20404;-74
2022/11/03 10:08:22;;;;;;;24.90;12.03;;;;;;;43.17;35.04;101182.81;5114620;28;20506;-75
2022/11/03 10:10:52;;;;;;;24.13;11.20;;;;;;;43.31;34.81;101183.31;5114940;28;20431;-72
2022/11/03 10:13:39;;;;;;;34.03;13.17;;;;;;;43.45;34.78;101181.09;5114734;28;20958;-72
2022/11/03 10:16:14;;;;;;;29.27;12.17;;;;;;;43.65;34.26;101182.19;5114711;28;20427;-73
2022/11/03 10:18:39;;;;;;;26.40;10.77;;;;;;;43.24;34.64;101174.88;5114650;28;20467;-76
2022/11/03 10:21:16;;;;;;;23.77;10.93;;;;;;;43.63;34.01;101180.94;5116461;27;20446;-76
2022/11/03 10:23:43;;;;;;;21.77;10.13;;;;;;;43.22;34.21;101174.44;5114483;28;20205;-75
2022/11/03 10:26:17;;;;;;;32.70;15.83;;;;;;;43.40;34.28;101164.97;5114476;28;20449;-76
2022/11/03 10:29:04;;;;;;;26.30;11.10;;;;;;;43.55;34.41;101170.91;5114507;28;20411;-76
2022/11/03 10:31:36;;;;;;;19.67;12.00;;;;;;;43.09;35.19;101159.13;5114498;28;20439;-76
2022/11/03 10:34:02;;;;;;;21.80;10.73;;;;;;;43.46;34.40;101157.31;5114324;28;20419;-75
2022/11/03 10:36:31;;;;;;;28.03;12.23;;;;;;;43.50;34.38;101157.44;5115964;28;20873;-75
2022/11/03 10:38:57;;;;;;;22.67;11.17;;;;;;;43.03;35.16;101155.81;5114211;28;20444;-74
2022/11/03 10:41:31;;;;;;;28.30;11.33;;;;;;;43.42;34.47;101159.94;5114275;28;20498;-75
2022/11/03 10:44:12;;;;;;;28.33;11.87;;;;;;;43.23;34.60;101154.19;5114215;28;20424;-74
2022/11/03 10:46:39;;;;;;;24.57;11.97;;;;;;;42.90;35.37;101154.91;5114011;28;20478;-75
2022/11/03 10:49:18;;;;;;;34.70;11.90;;;;;;;43.15;34.76;101155.84;5114044;28;20511;-76
2022/11/03 10:51:47;;;;;;;25.47;11.97;;;;;;;43.08;35.19;101138.41;5114135;28;20477;-74
2022/11/03 10:54:16;;;;;;;20.10;12.17;;;;;;;43.07;35.57;101140.34;5114194;28;20473;-76
2022/11/03 10:56:43;;;;;;;26.50;11.20;;;;;;;43.15;35.19;101146.84;5114050;28;20440;-74
2022/11/03 10:59:17;;;;;;;24.03;11.53;;;;;;;42.64;35.79;101138.75;5113786;28;20416;-74
2022/11/03 11:01:43;;;;;;;27.23;12.23;;;;;;;42.79;35.35;101137.38;5113882;28;20407;-74
2022/11/03 11:04:19;;;;;;;18.33;11.70;;;;;;;43.21;35.04;101133.78;5113838;28;20802;-74
2022/11/03 11:06:45;;;;;;;32.30;10.80;;;;;;;43.11;35.07;101130.38;5113603;28;20482;-75
2022/11/03 11:09:14;;;;;;;37.40;15.43;;;;;;;43.43;34.75;101136.97;5113732;28;20409;-74
2022/11/03 11:12:17;;;;;;;24.27;13.03;;;;;;;42.80;35.26;101125.31;5113397;28;20907;-74
2022/11/03 11:14:52;;;;;;;28.37;13.90;;;;;;;43.19;34.99;101126.75;5113594;28;20499;-76
2022/11/03 11:17:36;;;;;;;26.90;13.73;;;;;;;43.32;34.82;101124.84;5113542;28;20490;-76
2022/11/03 11:20:19;;;;;;;27.77;11.47;;;;;;;43.38;34.69;101128.97;5115071;28;20439;-74
2022/11/03 11:22:46;;;;;;;28.63;11.67;;;;;;;43.39;34.68;101118.84;5113391;28;20922;-74
2022/11/03 11:25:12;;;;;;;27.57;11.80;;;;;;;43.36;34.90;101116.78;5113196;28;20449;-76
2022/11/03 11:27:38;;;;;;;32.43;12.53;;;;;;;43.07;34.86;101115.78;5113291;28;20463;-74
2022/11/03 11:30:06;;;;;;;22.20;11.73;;;;;;;42.96;35.55;101111.03;5081804;28;20495;-74
2022/11/03 11:32:38;;;;;;;36.37;10.60;;;;;;;42.87;35.38;101108.41;5093526;28;20693;-74
2022/11/03 11:35:30;;;;;;;22.80;10.70;;;;;;;43.51;34.67;101098.94;5092646;28;20420;-75
2022/11/03 11:38:34;;;;;;;23.03;12.57;;;;;;;43.21;34.85;101090.09;5062202;28;20424;-74
2022/11/03 11:41:01;;;;;;;20.83;11.67;;;;;;;43.13;34.87;101084.41;5094018;28;20416;-74
2022/11/03 11:43:28;;;;;;;27.87;13.37;;;;;;;43.42;34.56;101094.41;5092640;28;20413;-74